Flight Track Log - Related Links

Times and Time Zones

All times are in EST time to prevent confusion due to time zone crossing. See the RPA3321 flight status page for this flight to view local times or setup timezone preferences in your user account.

Time Position Orientation Groundspeed Altitude Reporting Facility
EST Latitude Longitude Course Direction KTS MPH feet Rate Location/Type
Mon 05:43:04 AM 42.7233 -73.8025 169° South 137 158 2,100  Level Boston Center
Mon 05:43:10 AM 42.7208 -73.8044 210° Southwest 125 144 2,300 1,433 Climbing Boston Center
Mon 05:44:11 AM 42.6931 -73.8389 222° Southwest 201 231 3,700 1,500 Climbing Boston Center
Mon 05:44:14 AM 42.6953 -73.8431 306° West 186 214 3,900 2,182 Climbing Boston Center
Mon 05:45:00 AM 42.5291 -73.9973 180° South  Level Estimated
Mon 05:45:17 AM 42.7567 -73.9072 323° Northwest 276 318 6,100  Level Boston Center
Mon 05:46:00 AM 42.4557 -74.0621 170° South  Level Estimated
Mon 05:46:18 AM 42.8261 -73.9678 327° Northwest 296 341 8,500  Level Boston Center
Mon 05:47:00 AM 42.3967 -73.9744 132° Southeast  Level FlightAware Approximate
Mon 05:47:18 AM 42.8558 -74.0628 293° West 270 311 10,600  Level Boston Center
Mon 05:48:00 AM 42.3243 -74.0411 169° South  Level Estimated
Mon 05:48:15 AM 42.8447 -74.1517 260° West 260 299 12,300  Level Boston Center
Mon 05:49:18 AM 42.7736 -74.1250 165° South 272 313 14,400 1,902 Climbing Boston Center
Mon 05:50:18 AM 42.6992 -74.0844 158° South 287 330 16,200 2,000 Climbing Boston Center
Mon 05:51:18 AM 42.6239 -74.0436 158° South 292 336 18,400 1,815 Climbing Boston Center
Mon 05:52:17 AM 42.5467 -74.0042 159° South 296 341 19,800 1,400 Climbing Boston Center
Mon 05:53:18 AM 42.4653 -73.9617 159° South 311 358 21,200 1,366 Climbing Boston Center
Mon 05:54:20 AM 42.3817 -73.9183 159° South 322 371 22,600 1,279 Climbing Boston Center
Mon 05:55:20 AM 42.2950 -73.8736 159° South 332 382 23,800 1,190 Climbing Boston Center
Mon 05:56:21 AM 42.2061 -73.8261 158° South 343 395 25,000 1,190 Climbing Boston Center
Mon 05:57:21 AM 42.1161 -73.7803 159° South 347 399 26,200 1,109 Climbing Boston Center
Mon 05:58:20 AM 42.0278 -73.7697 175° South 323 372 27,200 1,077 Climbing Boston Center
Mon 05:59:18 AM 41.9478 -73.8128 202° Southwest 311 358 28,300 1,109 Climbing Boston Center
Mon 06:00:19 AM 41.8678 -73.8578 203° Southwest 311 358 29,400 836 Climbing Boston Center
Mon 06:01:20 AM 41.7939 -73.9103 208° Southwest 309 356 30,000 293 Climbing Boston Center
Mon 06:02:22 AM 41.7131 -73.9678 208° Southwest 322 371 30,000  Level Boston Center
Mon 06:03:23 AM 41.6336 -74.0225 207° Southwest 323 372 30,000  Level Boston Center
Mon 06:04:21 AM 41.5539 -74.0786 208° Southwest 324 373 30,000  Level Boston Center
Mon 06:05:22 AM 41.4747 -74.1333 207° Southwest 322 371 30,000  Level Boston Center
Mon 06:06:38 AM 41.3592 -74.2122 207° Southwest 320 368 30,000  Level New York Center
Mon 06:07:38 AM 41.2786 -74.2661 207° Southwest 325 374 30,000  Level New York Center
Mon 06:08:38 AM 41.2000 -74.3200 207° Southwest 325 374 30,000  Level New York Center
Mon 06:09:38 AM 41.1192 -74.3736 207° Southwest 331 381 30,000  Level New York Center
Mon 06:10:38 AM 41.0381 -74.4325 209° Southwest 331 381 30,000  Level New York Center
Mon 06:11:38 AM 40.9594 -74.4833 206° Southwest 331 381 30,000  Level New York Center
Mon 06:12:38 AM 40.8808 -74.5367 207° Southwest 326 375 30,000  Level New York Center
Mon 06:13:38 AM 40.8019 -74.5925 208° Southwest 326 375 30,000 -50 Level New York Center
Mon 06:14:38 AM 40.7231 -74.6483 208° Southwest 332 382 29,900 -650 Descending New York Center
Mon 06:15:38 AM 40.6483 -74.6961 206° Southwest 319 367 28,700 -950 Descending New York Center
Mon 06:16:38 AM 40.5758 -74.7519 210° Southwest 313 360 28,000 -350 Descending New York Center
Mon 06:17:38 AM 40.5211 -74.8253 226° Southwest 302 348 28,000  Level New York Center
Mon 06:18:38 AM 40.4661 -74.9094 229° Southwest 296 341 28,000  Level New York Center
Mon 06:19:38 AM 40.4114 -74.9850 226° Southwest 296 341 28,000 -50 Level New York Center
Mon 06:20:38 AM 40.3564 -75.0633 227° Southwest 296 341 27,900 -750 Descending New York Center
Mon 06:21:38 AM 40.3014 -75.1417 227° Southwest 296 341 26,500 -1,450 Descending New York Center
Mon 06:22:38 AM 40.2464 -75.2169 226° Southwest 296 341 25,000 -1,500 Descending New York Center
Mon 06:23:38 AM 40.1981 -75.2872 228° Southwest 296 341 23,500 -1,488 Descending New York Center
Mon 06:24:39 AM 40.1472 -75.3600 228° Southwest 296 341 22,000 -750 Descending New York Center
Mon 06:25:38 AM 40.0964 -75.4353 229° Southwest 285 328 22,000  Level New York Center
Mon 06:26:38 AM 40.0453 -75.5133 229° Southwest 280 322 22,000  Level New York Center
Mon 06:27:38 AM 39.9961 -75.5914 231° Southwest 280 322 22,000  Level New York Center
Mon 06:28:38 AM 39.9472 -75.6692 231° Southwest 280 322 22,000  Level New York Center
Mon 06:29:38 AM 39.8961 -75.7442 228° Southwest 280 322 22,000  Level New York Center
Mon 06:30:38 AM 39.8492 -75.8192 231° Southwest 280 322 22,000 -300 Level New York Center
Mon 06:32:38 AM 39.7333 -75.9833 227° Southwest 277 319 21,100 -829 Descending Potomac TRACON
Mon 06:33:39 AM 39.6833 -76.0500 226° Southwest 272 313 19,500 -1,826 Descending Potomac TRACON
Mon 06:34:33 AM 39.6500 -76.1167 237° Southwest 273 314 17,600 -1,842 Descending Potomac TRACON
Mon 06:35:33 AM 39.6000 -76.2000 232° Southwest 271 312 16,000 -1,571 Descending Potomac TRACON
Mon 06:36:39 AM 39.5500 -76.2667 226° Southwest 258 297 14,300 -1,571 Descending Potomac TRACON
Mon 06:37:39 AM 39.5000 -76.3333 226° Southwest 252 290 12,700 -1,150 Descending Potomac TRACON
Mon 06:38:39 AM 39.4500 -76.4167 232° Southwest 248 285 12,000 -350 Descending Potomac TRACON
Mon 06:39:39 AM 39.4000 -76.4667 218° Southwest 244 281 12,000  Level Potomac TRACON
Mon 06:40:39 AM 39.3500 -76.5167 218° Southwest 244 281 12,000 -200 Level Potomac TRACON
Mon 06:41:39 AM 39.2833 -76.5667 210° Southwest 249 287 11,600 -750 Descending Potomac TRACON
Mon 06:42:39 AM 39.2333 -76.6000 207° Southwest 239 275 10,500 -889 Descending Potomac TRACON
Mon 06:43:27 AM 39.1833 -76.6500 218° Southwest 221 254 10,000 -278 Descending Potomac TRACON
Mon 06:44:27 AM 39.1500 -76.7000 229° Southwest 214 246 10,000  Level Potomac TRACON
Mon 06:45:27 AM 39.1000 -76.7500 218° Southwest 216 249 10,000 -333 Level Potomac TRACON
Mon 06:46:15 AM 39.0667 -76.7833 218° Southwest 219 252 9,400 -895 Descending Potomac TRACON
Mon 06:47:21 AM 39.0167 -76.8500 226° Southwest 215 247 8,300 -1,000 Descending Potomac TRACON
Mon 06:48:15 AM 38.9833 -76.9000 229° Southwest 208 239 7,400 -1,000 Descending Potomac TRACON
Mon 06:49:09 AM 38.9333 -76.9333 207° Southwest 213 245 6,500 -835 Descending Potomac TRACON
Mon 06:50:10 AM 38.8667 -76.9500 191° South 235 270 5,800 -1,043 Descending Potomac TRACON
Mon 06:51:04 AM 38.8167 -76.9500 180° South 229 264 4,500 -895 Descending Potomac TRACON
Mon 06:52:04 AM 38.7667 -76.9500 180° South 170 196 4,100 -939 Descending Potomac TRACON
Mon 06:52:59 AM 38.7333 -76.9333 159° South 161 185 2,700 -881 Descending Potomac TRACON
Mon 06:53:53 AM 38.6833 -76.9333 180° South 167 192 2,500 -105 Descending Potomac TRACON
Mon 06:54:53 AM 38.6333 -76.9333 180° South 154 177 2,500  Level Potomac TRACON
Mon 06:56:00 AM 38.6333 -76.9833 270° West 144 166 2,500  Level Potomac TRACON
Mon 06:57:00 AM 38.6833 -77.0167 333° Northwest 184 212 2,500 -150 Level Potomac TRACON
Mon 06:58:00 AM 38.7333 -77.0333 345° North 177 204 2,200 -545 Descending Potomac TRACON
Mon 06:59:01 AM 38.7833 -77.0333 360° North 177 204 1,400 -843 Descending Potomac TRACON
Mon 07:00:01 AM 38.8167 -77.0333 360° North 163 188 500 -900 Descending Potomac TRACON

Login

Don't have an account? Register now (free) for customized features, flight alerts, and more!